La Porsche — VY9305 — position and weather

sailwx.info

Track history (hours):
 
Tides and Currents Weather Stations Pressure Air Temp Water Temp Dewpoint Dewpoint Depression Visibility Wind Speed Wind Dir Waves Ship Positions

La Porsche

Last reported at 2017-Jun-24 02:58 UTC. Time now 2017-Jun-24 03:25 UTC.
Position N 50°20' W 125°26'.

Length 22 m; draft 2.9 m.

Type: Fishing. MMSI: 316001649.

Date/timePositionNaut miles runAvg speedWind from/ knotsBaromVisibWave heightAir tempDewpointWater temp
2017-Jun-24 02:58N 50°20' W 125°26'5 9.9
2017-Jun-24 02:26N 50°15' W 125°23'4 9.5
2017-Jun-24 02:00N 50°11' W 125°22'3 6.2
2017-Jun-24 01:30N 50°08' W 125°23'0 0.6
2017-Jun-24 01:00N 50°08' W 125°23'0 0.0
2017-Jun-24 00:30N 50°08' W 125°23'0 0.0
2017-Jun-24 00:01N 50°08' W 125°23'0 0.0
2017-Jun-23 23:30N 50°08' W 125°23'0 0.0
2017-Jun-23 23:00N 50°08' W 125°23'0 0.0
2017-Jun-23 22:30N 50°08' W 125°23'0 0.0
2017-Jun-23 22:00N 50°08' W 125°23'0 0.0
2017-Jun-23 21:30N 50°08' W 125°23'0 0.0
2017-Jun-23 21:01N 50°08' W 125°23'0 0.1
2017-Jun-23 20:30N 50°08' W 125°23'0 0.1
2017-Jun-23 20:00N 50°08' W 125°23'1 2.2
2017-Jun-23 19:30N 50°08' W 125°21'3 6.2
2017-Jun-23 19:01N 50°06' W 125°17'4 8.4
2017-Jun-23 18:30N 50°03' W 125°14'5 8.9
2017-Jun-23 18:00N 49°58' W 125°11'5 9.8
2017-Jun-23 17:30N 49°55' W 125°05'5 9.3
2017-Jun-23 17:00N 49°53' W 124°59'4 7.4
2017-Jun-23 16:31N 49°51' W 124°55'4 7.3
2017-Jun-23 16:01N 49°48' W 124°50'4 7.3
2017-Jun-23 15:30N 49°46' W 124°46'3 6.8
2017-Jun-23 15:00N 49°44' W 124°42'7 7.0
2017-Jun-23 13:59N 49°40' W 124°33'4 7.5
2017-Jun-23 13:30N 49°37' W 124°29'4 7.6
2017-Jun-23 12:59N 49°35' W 124°24'4 7.6
2017-Jun-23 12:30N 49°33' W 124°19'8 7.1
2017-Jun-23 11:20N 49°29' W 124°08'3 7.3
2017-Jun-23 10:59N 49°27' W 124°05'4 7.5
2017-Jun-23 10:28N 49°26' W 123°59'14 7.8
2017-Jun-23 08:39N 49°21' W 123°39'1 8.1
2017-Jun-23 08:30N 49°21' W 123°37'4 8.1
2017-Jun-23 08:01N 49°19' W 123°32'4 8.2
2017-Jun-23 07:30N 49°18' W 123°26'4 7.8
2017-Jun-23 07:00N 49°17' W 123°20'4 8.1
2017-Jun-23 06:30N 49°14' W 123°15'4 8.1
2017-Jun-23 05:58N 49°12' W 123°09'4 8.6
2017-Jun-23 05:30N 49°12' W 123°03'4 7.8
2017-Jun-23 05:00N 49°12' W 122°57'2 3.7
2017-Jun-23 04:30N 49°10' W 122°55'1 0.9
2017-Jun-23 03:58N 49°11' W 122°55'0 0.0
2017-Jun-23 03:28N 49°11' W 122°55'0 0.0
2017-Jun-23 02:58N 49°11' W 122°55'0 0.0
2017-Jun-23 02:28N 49°11' W 122°55'0 0.0
2017-Jun-23 01:58N 49°11' W 122°55'0 0.0
2017-Jun-23 01:28N 49°11' W 122°55'0 0.0
2017-Jun-23 00:58N 49°11' W 122°55'0 0.0
2017-Jun-23 00:28N 49°11' W 122°55'0 0.0
2017-Jun-22 23:58N 49°11' W 122°55'0 0.0
2017-Jun-22 23:28N 49°11' W 122°55'0 0.0
2017-Jun-22 22:58N 49°11' W 122°55'0 0.0
2017-Jun-22 22:28N 49°11' W 122°55'0 0.0
2017-Jun-22 21:58N 49°11' W 122°55'0 0.0
2017-Jun-22 21:28N 49°11' W 122°55'0 0.0
2017-Jun-22 20:58N 49°11' W 122°55'0 0.0
2017-Jun-22 20:28N 49°11' W 122°55'0 0.0
2017-Jun-22 19:58N 49°11' W 122°55'0 0.0
2017-Jun-22 19:28N 49°11' W 122°55'0 0.0
2017-Jun-22 18:58N 49°11' W 122°55'0 0.0
2017-Jun-22 18:28N 49°11' W 122°55'0 0.0
2017-Jun-22 17:58N 49°11' W 122°55'0 0.0
2017-Jun-22 17:28N 49°11' W 122°55'0 0.0
2017-Jun-22 16:58N 49°11' W 122°55'0 0.1
2017-Jun-22 16:25N 49°11' W 122°55'0 0.1
2017-Jun-22 15:58N 49°11' W 122°55'0 0.0
2017-Jun-22 15:28N 49°11' W 122°55'0 0.0
2017-Jun-22 14:58N 49°11' W 122°55'0 0.0
2017-Jun-22 14:28N 49°11' W 122°55'0 0.0
2017-Jun-22 13:28N 49°11' W 122°55'0 0.0
2017-Jun-22 12:55N 49°11' W 122°55'0 0.0
2017-Jun-22 12:28N 49°11' W 122°55'0 0.0
2017-Jun-22 11:58N 49°11' W 122°55'0 0.0
2017-Jun-22 11:28N 49°11' W 122°55'0 0.0
2017-Jun-22 10:58N 49°11' W 122°55'0 0.0
2017-Jun-22 10:28N 49°11' W 122°55'0 0.0
2017-Jun-22 09:55N 49°11' W 122°55'0 0.0
2017-Jun-22 09:28N 49°11' W 122°55'0 0.0
2017-Jun-22 08:58N 49°11' W 122°55'0 0.0
2017-Jun-22 08:28N 49°11' W 122°55'0 0.0
2017-Jun-22 07:55N 49°11' W 122°55'0 0.0
2017-Jun-22 07:28N 49°11' W 122°55'0 0.0
2017-Jun-22 06:58N 49°11' W 122°55'0 0.0
2017-Jun-22 06:28N 49°11' W 122°55'0 0.0
2017-Jun-22 05:58N 49°11' W 122°55'0 0.0
2017-Jun-22 05:28N 49°11' W 122°55'0 0.0
2017-Jun-22 04:58N 49°11' W 122°55'0 0.0
2017-Jun-22 04:28N 49°11' W 122°55'0 0.0
2017-Jun-22 03:58N 49°11' W 122°55'0 0.0
2017-Jun-22 03:28N 49°11' W 122°55'0 0.0
2017-Jun-22 02:58N 49°11' W 122°55'0 0.0
2017-Jun-22 02:28N 49°11' W 122°55'0 0.0
2017-Jun-22 01:58N 49°11' W 122°55'0 0.0
2017-Jun-22 01:28N 49°11' W 122°55'0 0.0
2017-Jun-22 00:58N 49°11' W 122°55'0 0.0
2017-Jun-22 00:28N 49°11' W 122°55'0 0.0
2017-Jun-21 23:58N 49°11' W 122°55'0 0.0
2017-Jun-21 23:28N 49°11' W 122°55'0 0.0
2017-Jun-21 22:58N 49°11' W 122°55'0 0.0
2017-Jun-21 22:28N 49°11' W 122°55'0 0.0
2017-Jun-21 21:58N 49°11' W 122°55'0 0.0
2017-Jun-21 21:28N 49°11' W 122°55'0 0.0
2017-Jun-21 20:58N 49°11' W 122°55'0 0.0
2017-Jun-21 20:28N 49°11' W 122°55'0 0.0
2017-Jun-21 19:58N 49°11' W 122°55'0 0.0
2017-Jun-21 19:28N 49°11' W 122°55'0 0.0
2017-Jun-21 18:58N 49°11' W 122°55'0 0.0
2017-Jun-21 18:28N 49°11' W 122°55'0 0.0
2017-Jun-21 17:58N 49°11' W 122°55'0 0.0
2017-Jun-21 17:28N 49°11' W 122°55'0 0.0
2017-Jun-21 16:58N 49°11' W 122°55'0 0.0
2017-Jun-21 16:28N 49°11' W 122°55'0 0.0
2017-Jun-21 15:58N 49°11' W 122°55'0 0.0
2017-Jun-21 15:28N 49°11' W 122°55'0 0.0
2017-Jun-21 14:58N 49°11' W 122°55'0 0.0
2017-Jun-21 14:28N 49°11' W 122°55'0 0.0
2017-Jun-21 13:28N 49°11' W 122°55'0 0.0
2017-Jun-21 12:58N 49°11' W 122°55'0 0.1
2017-Jun-21 12:28N 49°11' W 122°55'0 0.1
2017-Jun-21 11:58N 49°11' W 122°55'0 0.0
2017-Jun-21 11:28N 49°11' W 122°55'0 0.0
2017-Jun-21 10:58N 49°11' W 122°55'0 0.0
2017-Jun-21 10:28N 49°11' W 122°55'0 0.0
2017-Jun-21 09:58N 49°11' W 122°55'0 0.0
2017-Jun-21 09:28N 49°11' W 122°55'0 0.0
2017-Jun-21 08:58N 49°11' W 122°55'0 0.0
2017-Jun-21 08:28N 49°11' W 122°55'0 0.0
2017-Jun-21 07:58N 49°11' W 122°55'0 0.0
2017-Jun-21 07:28N 49°11' W 122°55'0 0.0
2017-Jun-21 06:58N 49°11' W 122°55'0 0.0
2017-Jun-21 06:28N 49°11' W 122°55'0 0.0
2017-Jun-21 05:58N 49°11' W 122°55'0 0.0
2017-Jun-21 05:28N 49°11' W 122°55'0 0.0
2017-Jun-21 04:58N 49°11' W 122°55'0 0.0
2017-Jun-21 04:28N 49°11' W 122°55'0 0.0
2017-Jun-21 03:58N 49°11' W 122°55'0 0.0
2017-Jun-21 03:28N 49°11' W 122°55'0 0.0
2017-Jun-21 02:58N 49°11' W 122°55'0 0.0
2017-Jun-21 02:28N 49°11' W 122°55'0 0.0
2017-Jun-21 01:55N 49°11' W 122°55'0 0.0
2017-Jun-21 01:28N 49°11' W 122°55'0 0.0
2017-Jun-21 00:58N 49°11' W 122°55'0 0.0
2017-Jun-21 00:28N 49°11' W 122°55'0 0.0
2017-Jun-20 23:58N 49°11' W 122°55'0 0.0
2017-Jun-20 23:28N 49°11' W 122°55'0 0.0
2017-Jun-20 22:58N 49°11' W 122°55'0 0.0
2017-Jun-20 22:28N 49°11' W 122°55'0 0.0
2017-Jun-20 21:58N 49°11' W 122°55'0 0.1
2017-Jun-20 21:28N 49°11' W 122°55'0 0.1
2017-Jun-20 20:58N 49°11' W 122°55'0 0.0
2017-Jun-20 20:28N 49°11' W 122°55'0 0.0
2017-Jun-20 19:58N 49°11' W 122°55'0 0.0
2017-Jun-20 19:28N 49°11' W 122°55'0 0.0
2017-Jun-20 18:58N 49°11' W 122°55'0 0.0
2017-Jun-20 18:28N 49°11' W 122°55'0 0.0
2017-Jun-20 17:58N 49°11' W 122°55'0 0.0
2017-Jun-20 17:28N 49°11' W 122°55'0 0.0
2017-Jun-20 16:58N 49°11' W 122°55'0 0.0
2017-Jun-20 16:28N 49°11' W 122°55'0 0.0
2017-Jun-20 15:58N 49°11' W 122°55'0 0.0
2017-Jun-20 15:25N 49°11' W 122°55'0 0.0
2017-Jun-20 14:58N 49°11' W 122°55'0 0.0
2017-Jun-20 13:55N 49°11' W 122°55'0 0.0
2017-Jun-20 13:28N 49°11' W 122°55'0 0.0
2017-Jun-20 12:58N 49°11' W 122°55'0 0.0
2017-Jun-20 12:28N 49°11' W 122°55'0 0.0
2017-Jun-20 11:58N 49°11' W 122°55'0 0.0
2017-Jun-20 11:28N 49°11' W 122°55'0 0.1
2017-Jun-20 10:55N 49°11' W 122°55'0 0.1
2017-Jun-20 10:28N 49°11' W 122°55'0 0.0
2017-Jun-20 09:58N 49°11' W 122°55'0 0.0
2017-Jun-20 09:28N 49°11' W 122°55'0 0.0
2017-Jun-20 08:58N 49°11' W 122°55'0 0.0
2017-Jun-20 08:28N 49°11' W 122°55'0 0.0
2017-Jun-20 07:55N 49°11' W 122°55'0 0.0
2017-Jun-20 07:28N 49°11' W 122°55'0 0.0
2017-Jun-20 06:58N 49°11' W 122°55'0 0.0
2017-Jun-20 06:28N 49°11' W 122°55'0 0.0
2017-Jun-20 05:58N 49°11' W 122°55'0 0.0
2017-Jun-20 05:28N 49°11' W 122°55'0 0.0
2017-Jun-20 04:58N 49°11' W 122°55'0 0.0
2017-Jun-20 04:28N 49°11' W 122°55'0 0.0
2017-Jun-20 03:58N 49°11' W 122°55'0 0.0
2017-Jun-20 03:28N 49°11' W 122°55'0 0.0
2017-Jun-20 02:58N 49°11' W 122°55'0 0.0
2017-Jun-20 02:28N 49°11' W 122°55'0 0.0
2017-Jun-20 01:58N 49°11' W 122°55'0 0.0
2017-Jun-20 01:28N 49°11' W 122°55'0 0.0
2017-Jun-20 00:58N 49°11' W 122°55'0 0.0
2017-Jun-20 00:28N 49°11' W 122°55'0 0.0
2017-Jun-19 23:58N 49°11' W 122°55'0 0.0
2017-Jun-19 23:28N 49°11' W 122°55'0 0.0
2017-Jun-19 22:58N 49°11' W 122°55'0 0.0
2017-Jun-19 22:25N 49°11' W 122°55'0 0.0
2017-Jun-19 21:58N 49°11' W 122°55'0 0.0
2017-Jun-19 21:28N 49°11' W 122°55'0 0.0
2017-Jun-19 20:58N 49°11' W 122°55'0 0.0
2017-Jun-19 20:28N 49°11' W 122°55'0 0.0
2017-Jun-19 19:55N 49°11' W 122°55'0 0.0
2017-Jun-19 19:28N 49°11' W 122°55'0 0.0
2017-Jun-19 18:58N 49°11' W 122°55'0 0.0
2017-Jun-19 18:28N 49°11' W 122°55'0 0.0
2017-Jun-19 17:58N 49°11' W 122°55'0 0.0
2017-Jun-19 17:25N 49°11' W 122°55'0 0.0
2017-Jun-19 16:55N 49°11' W 122°55'0 0.0
2017-Jun-19 16:28N 49°11' W 122°55'0 0.0
2017-Jun-19 15:58N 49°11' W 122°55'0 0.0
2017-Jun-19 15:25N 49°11' W 122°55'0 0.0
2017-Jun-19 14:58N 49°11' W 122°55'0 0.0
2017-Jun-19 13:58N 49°11' W 122°55'0 0.0
2017-Jun-19 13:28N 49°11' W 122°55'0 0.0
2017-Jun-19 12:58N 49°11' W 122°55'0 0.0
2017-Jun-19 12:28N 49°11' W 122°55'0 0.0
2017-Jun-19 11:58N 49°11' W 122°55'0 0.0
2017-Jun-19 11:28N 49°11' W 122°55'0 0.0
2017-Jun-19 10:58N 49°11' W 122°55'0 0.0
2017-Jun-19 10:22N 49°11' W 122°55'0 0.0
2017-Jun-19 09:55N 49°11' W 122°55'0 0.0
2017-Jun-19 09:28N 49°11' W 122°55'0 0.0
2017-Jun-19 08:58N 49°11' W 122°55'0 0.0
2017-Jun-19 08:28N 49°11' W 122°55'0 0.0
2017-Jun-19 07:58N 49°11' W 122°55'0 0.0
2017-Jun-19 07:28N 49°11' W 122°55'0 0.0
2017-Jun-19 06:58N 49°11' W 122°55'0 0.0
2017-Jun-19 06:28N 49°11' W 122°55'0 0.0
2017-Jun-19 05:58N 49°11' W 122°55'0 0.0
2017-Jun-19 05:28N 49°11' W 122°55'0 0.0
2017-Jun-19 04:58N 49°11' W 122°55'0 0.0
2017-Jun-19 04:28N 49°11' W 122°55'0 0.0
2017-Jun-19 03:58N 49°11' W 122°55'0 0.0
2017-Jun-19 03:28N 49°11' W 122°55'0 0.0
2017-Jun-19 02:58N 49°11' W 122°55'0 0.0
2017-Jun-19 02:28N 49°11' W 122°55'0 0.0
2017-Jun-19 01:58N 49°11' W 122°55'0 0.0
2017-Jun-19 01:28N 49°11' W 122°55'0 0.0
2017-Jun-19 00:58N 49°11' W 122°55'0 0.0
2017-Jun-19 00:28N 49°11' W 122°55'0 0.0
2017-Jun-18 23:58N 49°11' W 122°55'0 0.0
2017-Jun-18 23:28N 49°11' W 122°55'0 0.0
2017-Jun-18 22:58N 49°11' W 122°55'0 0.0
2017-Jun-18 22:28N 49°11' W 122°55'0 0.0
2017-Jun-18 21:58N 49°11' W 122°55'0 0.0
2017-Jun-18 21:28N 49°11' W 122°55'0 0.0
2017-Jun-18 20:58N 49°11' W 122°55'0 0.0
2017-Jun-18 20:28N 49°11' W 122°55'0 0.0
2017-Jun-18 19:58N 49°11' W 122°55'0 0.0
2017-Jun-18 19:28N 49°11' W 122°55'0 0.0
2017-Jun-18 18:58N 49°11' W 122°55'0 0.0
2017-Jun-18 18:28N 49°11' W 122°55'0 0.0
2017-Jun-18 17:58N 49°11' W 122°55'0 0.0
2017-Jun-18 17:28N 49°11' W 122°55'0 0.0
2017-Jun-18 16:58N 49°11' W 122°55'0 0.0
2017-Jun-18 16:28N 49°11' W 122°55'0 0.0
2017-Jun-18 15:58N 49°11' W 122°55'0 0.0
2017-Jun-18 15:28N 49°11' W 122°55'0 0.0
2017-Jun-18 14:58N 49°11' W 122°55'0 0.0
2017-Jun-18 13:58N 49°11' W 122°55'0 0.0
2017-Jun-18 13:25N 49°11' W 122°55'0 0.0
2017-Jun-18 12:58N 49°11' W 122°55'0 0.0
2017-Jun-18 12:25N 49°11' W 122°55'0 0.0
2017-Jun-18 11:58N 49°11' W 122°55'0 0.0
2017-Jun-18 11:28N 49°11' W 122°55'0 0.0
2017-Jun-18 10:58N 49°11' W 122°55'0 0.0
2017-Jun-18 10:28N 49°11' W 122°55'0 0.0
2017-Jun-18 09:58N 49°11' W 122°55'0 0.0
2017-Jun-18 09:28N 49°11' W 122°55'0 0.0
2017-Jun-18 08:58N 49°11' W 122°55'0 0.0
2017-Jun-18 08:28N 49°11' W 122°55'0 0.0
2017-Jun-18 07:58N 49°11' W 122°55'0 0.0
2017-Jun-18 07:28N 49°11' W 122°55'0 0.0
2017-Jun-18 06:58N 49°11' W 122°55'0 0.0
2017-Jun-18 06:28N 49°11' W 122°55'0 0.0
2017-Jun-18 05:55N 49°11' W 122°55'0 0.0
2017-Jun-18 05:28N 49°11' W 122°55'0 0.0
2017-Jun-18 04:58N 49°11' W 122°55'0 0.0
2017-Jun-18 04:28N 49°11' W 122°55'0 0.0
2017-Jun-18 03:58N 49°11' W 122°55'0 0.0
2017-Jun-18 03:28N 49°11' W 122°55'0 0.0
2017-Jun-18 02:58N 49°11' W 122°55'0 0.0
2017-Jun-18 02:28N 49°11' W 122°55'0 0.0
2017-Jun-18 01:58N 49°11' W 122°55'0 0.0
2017-Jun-18 01:28N 49°11' W 122°55'0 0.0
2017-Jun-18 00:58N 49°11' W 122°55'0 0.0
2017-Jun-18 00:28N 49°11' W 122°55'0 0.0
2017-Jun-17 23:58N 49°11' W 122°55'0 0.0
2017-Jun-17 23:28N 49°11' W 122°55'0 0.0
2017-Jun-17 22:58N 49°11' W 122°55'0 0.0
2017-Jun-17 22:28N 49°11' W 122°55'0 0.0
2017-Jun-17 21:58N 49°11' W 122°55'0 0.0
2017-Jun-17 21:28N 49°11' W 122°55'0 0.0
2017-Jun-17 20:58N 49°11' W 122°55'0 0.0
2017-Jun-17 20:28N 49°11' W 122°55'0 0.0
2017-Jun-17 19:58N 49°11' W 122°55'0 0.0
2017-Jun-17 19:28N 49°11' W 122°55'0 0.0
2017-Jun-17 18:58N 49°11' W 122°55'0 0.0
2017-Jun-17 18:28N 49°11' W 122°55'0 0.0
2017-Jun-17 17:55N 49°11' W 122°55'0 0.0
2017-Jun-17 17:28N 49°11' W 122°55'0 0.0
2017-Jun-17 16:58N 49°11' W 122°55'0 0.0
2017-Jun-17 16:28N 49°11' W 122°55'0 0.0
2017-Jun-17 15:58N 49°11' W 122°55'0 0.0
2017-Jun-17 15:28N 49°11' W 122°55'0 0.0
2017-Jun-17 14:58N 49°11' W 122°55'0 0.0
2017-Jun-17 13:58N 49°11' W 122°55'0 0.0
2017-Jun-17 13:28N 49°11' W 122°55'0 0.0
2017-Jun-17 12:58N 49°11' W 122°55'0 0.0
2017-Jun-17 12:28N 49°11' W 122°55'0 0.0
2017-Jun-17 11:58N 49°11' W 122°55'0 0.0
2017-Jun-17 11:28N 49°11' W 122°55'0 0.0
2017-Jun-17 10:58N 49°11' W 122°55'0 0.0
2017-Jun-17 10:28N 49°11' W 122°55'0 0.0
2017-Jun-17 09:58N 49°11' W 122°55'0 0.0
2017-Jun-17 09:28N 49°11' W 122°55'0 0.0
2017-Jun-17 08:58N 49°11' W 122°55'0 0.0
2017-Jun-17 08:28N 49°11' W 122°55'0 0.0
2017-Jun-17 07:58N 49°11' W 122°55'0 0.0
2017-Jun-17 07:28N 49°11' W 122°55'0 0.0
2017-Jun-17 06:58N 49°11' W 122°55'0 0.0
2017-Jun-17 06:28N 49°11' W 122°55'0 0.0
2017-Jun-17 05:55N 49°11' W 122°55'0 0.0
2017-Jun-17 05:28N 49°11' W 122°55'0 0.0
2017-Jun-17 04:58N 49°11' W 122°55'0 0.0
2017-Jun-17 04:28N 49°11' W 122°55'0 0.0
2017-Jun-17 03:58N 49°11' W 122°55'0 0.0
2017-Jun-17 03:28N 49°11' W 122°55'0 0.0
2017-Jun-17 02:58N 49°11' W 122°55'0 0.0
2017-Jun-17 02:28N 49°11' W 122°55'0 0.0
2017-Jun-17 01:55N 49°11' W 122°55'0 0.0
2017-Jun-17 01:28N 49°11' W 122°55'0 0.0
2017-Jun-17 00:58N 49°11' W 122°55'0 0.0
2017-Jun-17 00:28N 49°11' W 122°55'0 0.0
2017-Jun-16 23:58N 49°11' W 122°55'0 0.0
2017-Jun-16 23:28N 49°11' W 122°55'0 0.0
2017-Jun-16 22:58N 49°11' W 122°55'0 0.0
2017-Jun-16 22:28N 49°11' W 122°55'0 0.0
2017-Jun-16 21:55N 49°11' W 122°55'0 0.0
2017-Jun-16 21:25N 49°11' W 122°55'0 0.0
2017-Jun-16 20:58N 49°11' W 122°55'0 0.0
2017-Jun-16 20:28N 49°11' W 122°55'0 0.0
2017-Jun-16 19:58N 49°11' W 122°55'0 0.0
2017-Jun-16 19:28N 49°11' W 122°55'0 0.0
2017-Jun-16 18:55N 49°11' W 122°55'0 0.0
2017-Jun-16 18:28N 49°11' W 122°55'0 0.0
2017-Jun-16 17:58N 49°11' W 122°55'0 0.0
2017-Jun-16 17:28N 49°11' W 122°55'0 0.0
2017-Jun-16 16:58N 49°11' W 122°55'0 0.0
2017-Jun-16 16:28N 49°11' W 122°55'0 0.0
2017-Jun-16 15:58N 49°11' W 122°55'0 0.0
2017-Jun-16 15:28N 49°11' W 122°55'0 0.0
2017-Jun-16 14:58N 49°11' W 122°55'0 0.0
2017-Jun-16 13:58N 49°11' W 122°55'0 0.0
2017-Jun-16 13:28N 49°11' W 122°55'0 0.0
2017-Jun-16 12:58N 49°11' W 122°55'0 0.0
2017-Jun-16 12:28N 49°11' W 122°55'0 0.0
2017-Jun-16 11:58N 49°11' W 122°55'0 0.0
2017-Jun-16 11:28N 49°11' W 122°55'0 0.0
2017-Jun-16 10:58N 49°11' W 122°55'0 0.0
2017-Jun-16 10:28N 49°11' W 122°55'0 0.0
2017-Jun-16 09:58N 49°11' W 122°55'0 0.0
2017-Jun-16 09:28N 49°11' W 122°55'0 0.0
2017-Jun-16 08:58N 49°11' W 122°55'0 0.0
2017-Jun-16 08:28N 49°11' W 122°55'0 0.0
2017-Jun-16 07:58N 49°11' W 122°55'0 0.0
2017-Jun-16 07:28N 49°11' W 122°55'0 0.0
2017-Jun-16 06:55N 49°11' W 122°55'0 0.0
2017-Jun-16 06:28N 49°11' W 122°55'0 0.0
2017-Jun-16 05:58N 49°11' W 122°55'0 0.0
2017-Jun-16 05:28N 49°11' W 122°55'0 0.0
2017-Jun-16 04:58N 49°11' W 122°55'0 0.0
2017-Jun-16 04:28N 49°11' W 122°55'0 0.0
2017-Jun-16 03:58N 49°11' W 122°55'0 0.0
2017-Jun-16 03:28N 49°11' W 122°55'0 0.0
2017-Jun-16 02:58N 49°11' W 122°55'0 0.0
2017-Jun-16 02:28N 49°11' W 122°55'0 0.0
2017-Jun-16 01:58N 49°11' W 122°55'0 0.0
2017-Jun-16 01:28N 49°11' W 122°55'0 0.0
2017-Jun-16 00:58N 49°11' W 122°55'0 0.0
2017-Jun-16 00:28N 49°11' W 122°55'0 0.0
2017-Jun-15 23:58N 49°11' W 122°55'0 0.0
2017-Jun-15 23:28N 49°11' W 122°55'0 0.0
2017-Jun-15 22:58N 49°11' W 122°55'0 0.0
2017-Jun-15 22:28N 49°11' W 122°55'0 0.0
2017-Jun-15 21:58N 49°11' W 122°55'0 0.0
2017-Jun-15 21:28N 49°11' W 122°55'0 0.0
2017-Jun-15 20:58N 49°11' W 122°55'0 0.0
2017-Jun-15 20:28N 49°11' W 122°55'0 0.0
2017-Jun-15 19:58N 49°11' W 122°55'0 0.0
2017-Jun-15 19:28N 49°11' W 122°55'0 0.0
2017-Jun-15 18:58N 49°11' W 122°55'0 0.0
2017-Jun-15 18:28N 49°11' W 122°55'0 0.0
2017-Jun-15 17:58N 49°11' W 122°55'0 0.0
2017-Jun-15 17:28N 49°11' W 122°55'0 0.0
2017-Jun-15 16:58N 49°11' W 122°55'0 0.0
2017-Jun-15 16:28N 49°11' W 122°55'0 0.0
2017-Jun-15 15:58N 49°11' W 122°55'0 0.0
2017-Jun-15 15:28N 49°11' W 122°55'0 0.0
2017-Jun-15 14:58N 49°11' W 122°55'0 0.0
2017-Jun-15 13:58N 49°11' W 122°55'0 0.0
2017-Jun-15 13:28N 49°11' W 122°55'0 0.0
2017-Jun-15 12:58N 49°11' W 122°55'0 0.0
2017-Jun-15 12:28N 49°11' W 122°55'0 0.0
2017-Jun-15 11:58N 49°11' W 122°55'0 0.0
2017-Jun-15 11:28N 49°11' W 122°55'0 0.0
2017-Jun-15 10:58N 49°11' W 122°55'0 0.0
2017-Jun-15 10:28N 49°11' W 122°55'0 0.0
2017-Jun-15 09:58N 49°11' W 122°55'0 0.0
2017-Jun-15 09:28N 49°11' W 122°55'0 0.0
2017-Jun-15 08:58N 49°11' W 122°55'0 0.0
2017-Jun-15 08:28N 49°11' W 122°55'0 0.0
2017-Jun-15 07:58N 49°11' W 122°55'0 0.0
2017-Jun-15 07:25N 49°11' W 122°55'0 0.0
2017-Jun-15 06:58N 49°11' W 122°55'0 0.0
2017-Jun-15 06:28N 49°11' W 122°55'0 0.0
2017-Jun-15 05:58N 49°11' W 122°55'0 0.0
2017-Jun-15 05:28N 49°11' W 122°55'0 0.0
2017-Jun-15 04:58N 49°11' W 122°55'0 0.0
2017-Jun-15 04:25N 49°11' W 122°55'0 0.0
2017-Jun-15 03:58N 49°11' W 122°55'0 0.0
2017-Jun-15 03:25N 49°11' W 122°55'0 0.0
2017-Jun-15 02:55N 49°11' W 122°55'0 0.0
2017-Jun-15 02:28N 49°11' W 122°55'0 0.0
2017-Jun-15 01:58N 49°11' W 122°55'0 0.0
2017-Jun-15 01:28N 49°11' W 122°55'0 0.0
2017-Jun-15 00:58N 49°11' W 122°55'0 0.0
2017-Jun-15 00:25N 49°11' W 122°55'0 0.0
2017-Jun-14 23:58N 49°11' W 122°55'0 0.0
2017-Jun-14 23:28N 49°11' W 122°55'0 0.0
2017-Jun-14 22:58N 49°11' W 122°55'0 0.0
2017-Jun-14 22:28N 49°11' W 122°55'0 0.0
2017-Jun-14 21:58N 49°11' W 122°55'0 0.0
2017-Jun-14 21:28N 49°11' W 122°55'0 0.0
2017-Jun-14 20:58N 49°11' W 122°55'0 0.0
2017-Jun-14 20:28N 49°11' W 122°55'0 0.0
2017-Jun-14 19:58N 49°11' W 122°55'0 0.0
2017-Jun-14 19:28N 49°11' W 122°55'0 0.0
2017-Jun-14 18:58N 49°11' W 122°55'0 0.0
2017-Jun-14 18:28N 49°11' W 122°55'0 0.0
2017-Jun-14 17:58N 49°11' W 122°55'0 0.0
2017-Jun-14 17:28N 49°11' W 122°55'0 0.0
2017-Jun-14 16:58N 49°11' W 122°55'0 0.0
2017-Jun-14 16:28N 49°11' W 122°55'0 0.0
2017-Jun-14 15:58N 49°11' W 122°55'0 0.0
2017-Jun-14 15:28N 49°11' W 122°55'0 0.0
2017-Jun-14 14:58N 49°11' W 122°55'0 0.0
2017-Jun-14 13:58N 49°11' W 122°55'0 0.0
2017-Jun-14 13:28N 49°11' W 122°55'0 0.0
2017-Jun-14 12:58N 49°11' W 122°55'0 0.0
2017-Jun-14 12:28N 49°11' W 122°55'0 0.0
2017-Jun-14 11:58N 49°11' W 122°55'0 0.0
2017-Jun-14 11:28N 49°11' W 122°55'0 0.0
2017-Jun-14 10:58N 49°11' W 122°55'0 0.0
2017-Jun-14 10:28N 49°11' W 122°55'0 0.0
2017-Jun-14 09:55N 49°11' W 122°55'0 0.0
2017-Jun-14 09:28N 49°11' W 122°55'0 0.0
2017-Jun-14 08:58N 49°11' W 122°55'0 0.0
2017-Jun-14 08:25N 49°11' W 122°55'0 0.0
2017-Jun-14 07:58N 49°11' W 122°55'0 0.0
2017-Jun-14 07:28N 49°11' W 122°55'0 0.0
2017-Jun-14 06:58N 49°11' W 122°55'0 0.0
2017-Jun-14 06:28N 49°11' W 122°55'0 0.0
2017-Jun-14 05:58N 49°11' W 122°55'0 0.0
2017-Jun-14 05:28N 49°11' W 122°55'0 0.0
2017-Jun-14 04:58N 49°11' W 122°55'0 0.0
2017-Jun-14 04:28N 49°11' W 122°55'0 0.0
2017-Jun-14 03:58N 49°11' W 122°55'0 0.0
2017-Jun-14 03:28N 49°11' W 122°55'0 0.0
2017-Jun-14 02:58N 49°11' W 122°55'  
Track history (hours):
 
Tides and Currents Weather Stations Pressure Air Temp Water Temp Dewpoint Dewpoint Depression Visibility Wind Speed Wind Dir Waves Ship Positions

La Porsche

Last reported at 2017-Jun-24 02:58 UTC. Time now 2017-Jun-24 03:25 UTC.
Position N 50°20' W 125°26'.

Length 22 m; draft 2.9 m.

Type: Fishing. MMSI: 316001649.

Date/timePositionNaut miles runAvg speedWind from/ knotsBaromVisibWave heightAir tempDewpointWater temp
2017-Jun-24 02:58N 50°20' W 125°26'5 9.9
2017-Jun-24 02:26N 50°15' W 125°23'4 9.5
2017-Jun-24 02:00N 50°11' W 125°22'3 6.2
2017-Jun-24 01:30N 50°08' W 125°23'0 0.6
2017-Jun-24 01:00N 50°08' W 125°23'0 0.0
2017-Jun-24 00:30N 50°08' W 125°23'0 0.0
2017-Jun-24 00:01N 50°08' W 125°23'0 0.0
2017-Jun-23 23:30N 50°08' W 125°23'0 0.0
2017-Jun-23 23:00N 50°08' W 125°23'0 0.0
2017-Jun-23 22:30N 50°08' W 125°23'0 0.0
2017-Jun-23 22:00N 50°08' W 125°23'0 0.0
2017-Jun-23 21:30N 50°08' W 125°23'0 0.0
2017-Jun-23 21:01N 50°08' W 125°23'0 0.1
2017-Jun-23 20:30N 50°08' W 125°23'0 0.1
2017-Jun-23 20:00N 50°08' W 125°23'1 2.2
2017-Jun-23 19:30N 50°08' W 125°21'3 6.2
2017-Jun-23 19:01N 50°06' W 125°17'4 8.4
2017-Jun-23 18:30N 50°03' W 125°14'5 8.9
2017-Jun-23 18:00N 49°58' W 125°11'5 9.8
2017-Jun-23 17:30N 49°55' W 125°05'5 9.3
2017-Jun-23 17:00N 49°53' W 124°59'4 7.4
2017-Jun-23 16:31N 49°51' W 124°55'4 7.3
2017-Jun-23 16:01N 49°48' W 124°50'4 7.3
2017-Jun-23 15:30N 49°46' W 124°46'3 6.8
2017-Jun-23 15:00N 49°44' W 124°42'7 7.0
2017-Jun-23 13:59N 49°40' W 124°33'4 7.5
2017-Jun-23 13:30N 49°37' W 124°29'4 7.6
2017-Jun-23 12:59N 49°35' W 124°24'4 7.6
2017-Jun-23 12:30N 49°33' W 124°19'8 7.1
2017-Jun-23 11:20N 49°29' W 124°08'3 7.3
2017-Jun-23 10:59N 49°27' W 124°05'4 7.5
2017-Jun-23 10:28N 49°26' W 123°59'14 7.8
2017-Jun-23 08:39N 49°21' W 123°39'1 8.1
2017-Jun-23 08:30N 49°21' W 123°37'4 8.1
2017-Jun-23 08:01N 49°19' W 123°32'4 8.2
2017-Jun-23 07:30N 49°18' W 123°26'4 7.8
2017-Jun-23 07:00N 49°17' W 123°20'4 8.1
2017-Jun-23 06:30N 49°14' W 123°15'4 8.1
2017-Jun-23 05:58N 49°12' W 123°09'4 8.6
2017-Jun-23 05:30N 49°12' W 123°03'4 7.8
2017-Jun-23 05:00N 49°12' W 122°57'2 3.7
2017-Jun-23 04:30N 49°10' W 122°55'1 0.9
2017-Jun-23 03:58N 49°11' W 122°55'0 0.0
2017-Jun-23 03:28N 49°11' W 122°55'0 0.0
2017-Jun-23 02:58N 49°11' W 122°55'0 0.0
2017-Jun-23 02:28N 49°11' W 122°55'0 0.0
2017-Jun-23 01:58N 49°11' W 122°55'0 0.0
2017-Jun-23 01:28N 49°11' W 122°55'0 0.0
2017-Jun-23 00:58N 49°11' W 122°55'0 0.0
2017-Jun-23 00:28N 49°11' W 122°55'0 0.0
2017-Jun-22 23:58N 49°11' W 122°55'0 0.0
2017-Jun-22 23:28N 49°11' W 122°55'0 0.0
2017-Jun-22 22:58N 49°11' W 122°55'0 0.0
2017-Jun-22 22:28N 49°11' W 122°55'0 0.0
2017-Jun-22 21:58N 49°11' W 122°55'0 0.0
2017-Jun-22 21:28N 49°11' W 122°55'0 0.0
2017-Jun-22 20:58N 49°11' W 122°55'0 0.0
2017-Jun-22 20:28N 49°11' W 122°55'0 0.0
2017-Jun-22 19:58N 49°11' W 122°55'0 0.0
2017-Jun-22 19:28N 49°11' W 122°55'0 0.0
2017-Jun-22 18:58N 49°11' W 122°55'0 0.0
2017-Jun-22 18:28N 49°11' W 122°55'0 0.0
2017-Jun-22 17:58N 49°11' W 122°55'0 0.0
2017-Jun-22 17:28N 49°11' W 122°55'0 0.0
2017-Jun-22 16:58N 49°11' W 122°55'0 0.1
2017-Jun-22 16:25N 49°11' W 122°55'0 0.1
2017-Jun-22 15:58N 49°11' W 122°55'0 0.0
2017-Jun-22 15:28N 49°11' W 122°55'0 0.0
2017-Jun-22 14:58N 49°11' W 122°55'0 0.0
2017-Jun-22 14:28N 49°11' W 122°55'0 0.0
2017-Jun-22 13:28N 49°11' W 122°55'0 0.0
2017-Jun-22 12:55N 49°11' W 122°55'0 0.0
2017-Jun-22 12:28N 49°11' W 122°55'0 0.0
2017-Jun-22 11:58N 49°11' W 122°55'0 0.0
2017-Jun-22 11:28N 49°11' W 122°55'0 0.0
2017-Jun-22 10:58N 49°11' W 122°55'0 0.0
2017-Jun-22 10:28N 49°11' W 122°55'0 0.0
2017-Jun-22 09:55N 49°11' W 122°55'0 0.0
2017-Jun-22 09:28N 49°11' W 122°55'0 0.0
2017-Jun-22 08:58N 49°11' W 122°55'0 0.0
2017-Jun-22 08:28N 49°11' W 122°55'0 0.0
2017-Jun-22 07:55N 49°11' W 122°55'0 0.0
2017-Jun-22 07:28N 49°11' W 122°55'0 0.0
2017-Jun-22 06:58N 49°11' W 122°55'0 0.0
2017-Jun-22 06:28N 49°11' W 122°55'0 0.0
2017-Jun-22 05:58N 49°11' W 122°55'0 0.0
2017-Jun-22 05:28N 49°11' W 122°55'0 0.0
2017-Jun-22 04:58N 49°11' W 122°55'0 0.0
2017-Jun-22 04:28N 49°11' W 122°55'0 0.0
2017-Jun-22 03:58N 49°11' W 122°55'0 0.0
2017-Jun-22 03:28N 49°11' W 122°55'0 0.0
2017-Jun-22 02:58N 49°11' W 122°55'0 0.0
2017-Jun-22 02:28N 49°11' W 122°55'0 0.0
2017-Jun-22 01:58N 49°11' W 122°55'0 0.0
2017-Jun-22 01:28N 49°11' W 122°55'0 0.0
2017-Jun-22 00:58N 49°11' W 122°55'0 0.0
2017-Jun-22 00:28N 49°11' W 122°55'0 0.0
2017-Jun-21 23:58N 49°11' W 122°55'0 0.0
2017-Jun-21 23:28N 49°11' W 122°55'0 0.0
2017-Jun-21 22:58N 49°11' W 122°55'0 0.0
2017-Jun-21 22:28N 49°11' W 122°55'0 0.0
2017-Jun-21 21:58N 49°11' W 122°55'0 0.0
2017-Jun-21 21:28N 49°11' W 122°55'0 0.0
2017-Jun-21 20:58N 49°11' W 122°55'0 0.0
2017-Jun-21 20:28N 49°11' W 122°55'0 0.0
2017-Jun-21 19:58N 49°11' W 122°55'0 0.0
2017-Jun-21 19:28N 49°11' W 122°55'0 0.0
2017-Jun-21 18:58N 49°11' W 122°55'0 0.0
2017-Jun-21 18:28N 49°11' W 122°55'0 0.0
2017-Jun-21 17:58N 49°11' W 122°55'0 0.0
2017-Jun-21 17:28N 49°11' W 122°55'0 0.0
2017-Jun-21 16:58N 49°11' W 122°55'0 0.0
2017-Jun-21 16:28N 49°11' W 122°55'0 0.0
2017-Jun-21 15:58N 49°11' W 122°55'0 0.0
2017-Jun-21 15:28N 49°11' W 122°55'0 0.0
2017-Jun-21 14:58N 49°11' W 122°55'0 0.0
2017-Jun-21 14:28N 49°11' W 122°55'0 0.0
2017-Jun-21 13:28N 49°11' W 122°55'0 0.0
2017-Jun-21 12:58N 49°11' W 122°55'0 0.1
2017-Jun-21 12:28N 49°11' W 122°55'0 0.1
2017-Jun-21 11:58N 49°11' W 122°55'0 0.0
2017-Jun-21 11:28N 49°11' W 122°55'0 0.0
2017-Jun-21 10:58N 49°11' W 122°55'0 0.0
2017-Jun-21 10:28N 49°11' W 122°55'0 0.0
2017-Jun-21 09:58N 49°11' W 122°55'0 0.0
2017-Jun-21 09:28N 49°11' W 122°55'0 0.0
2017-Jun-21 08:58N 49°11' W 122°55'0 0.0
2017-Jun-21 08:28N 49°11' W 122°55'0 0.0
2017-Jun-21 07:58N 49°11' W 122°55'0 0.0
2017-Jun-21 07:28N 49°11' W 122°55'0 0.0
2017-Jun-21 06:58N 49°11' W 122°55'0 0.0
2017-Jun-21 06:28N 49°11' W 122°55'0 0.0
2017-Jun-21 05:58N 49°11' W 122°55'0 0.0
2017-Jun-21 05:28N 49°11' W 122°55'0 0.0
2017-Jun-21 04:58N 49°11' W 122°55'0 0.0
2017-Jun-21 04:28N 49°11' W 122°55'0 0.0
2017-Jun-21 03:58N 49°11' W 122°55'0 0.0
2017-Jun-21 03:28N 49°11' W 122°55'0 0.0
2017-Jun-21 02:58N 49°11' W 122°55'0 0.0
2017-Jun-21 02:28N 49°11' W 122°55'0 0.0
2017-Jun-21 01:55N 49°11' W 122°55'0 0.0
2017-Jun-21 01:28N 49°11' W 122°55'0 0.0
2017-Jun-21 00:58N 49°11' W 122°55'0 0.0
2017-Jun-21 00:28N 49°11' W 122°55'0 0.0
2017-Jun-20 23:58N 49°11' W 122°55'0 0.0
2017-Jun-20 23:28N 49°11' W 122°55'0 0.0
2017-Jun-20 22:58N 49°11' W 122°55'0 0.0
2017-Jun-20 22:28N 49°11' W 122°55'0 0.0
2017-Jun-20 21:58N 49°11' W 122°55'0 0.1
2017-Jun-20 21:28N 49°11' W 122°55'0 0.1
2017-Jun-20 20:58N 49°11' W 122°55'0 0.0
2017-Jun-20 20:28N 49°11' W 122°55'0 0.0
2017-Jun-20 19:58N 49°11' W 122°55'0 0.0
2017-Jun-20 19:28N 49°11' W 122°55'0 0.0
2017-Jun-20 18:58N 49°11' W 122°55'0 0.0
2017-Jun-20 18:28N 49°11' W 122°55'0 0.0
2017-Jun-20 17:58N 49°11' W 122°55'0 0.0
2017-Jun-20 17:28N 49°11' W 122°55'0 0.0
2017-Jun-20 16:58N 49°11' W 122°55'0 0.0
2017-Jun-20 16:28N 49°11' W 122°55'0 0.0
2017-Jun-20 15:58N 49°11' W 122°55'0 0.0
2017-Jun-20 15:25N 49°11' W 122°55'0 0.0
2017-Jun-20 14:58N 49°11' W 122°55'0 0.0
2017-Jun-20 13:55N 49°11' W 122°55'0 0.0
2017-Jun-20 13:28N 49°11' W 122°55'0 0.0
2017-Jun-20 12:58N 49°11' W 122°55'0 0.0
2017-Jun-20 12:28N 49°11' W 122°55'0 0.0
2017-Jun-20 11:58N 49°11' W 122°55'0 0.0
2017-Jun-20 11:28N 49°11' W 122°55'0 0.1
2017-Jun-20 10:55N 49°11' W 122°55'0 0.1
2017-Jun-20 10:28N 49°11' W 122°55'0 0.0
2017-Jun-20 09:58N 49°11' W 122°55'0 0.0
2017-Jun-20 09:28N 49°11' W 122°55'0 0.0
2017-Jun-20 08:58N 49°11' W 122°55'0 0.0
2017-Jun-20 08:28N 49°11' W 122°55'0 0.0
2017-Jun-20 07:55N 49°11' W 122°55'0 0.0
2017-Jun-20 07:28N 49°11' W 122°55'0 0.0
2017-Jun-20 06:58N 49°11' W 122°55'0 0.0
2017-Jun-20 06:28N 49°11' W 122°55'0 0.0
2017-Jun-20 05:58N 49°11' W 122°55'0 0.0
2017-Jun-20 05:28N 49°11' W 122°55'0 0.0
2017-Jun-20 04:58N 49°11' W 122°55'0 0.0
2017-Jun-20 04:28N 49°11' W 122°55'0 0.0
2017-Jun-20 03:58N 49°11' W 122°55'0 0.0
2017-Jun-20 03:28N 49°11' W 122°55'0 0.0
2017-Jun-20 02:58N 49°11' W 122°55'0 0.0
2017-Jun-20 02:28N 49°11' W 122°55'0 0.0
2017-Jun-20 01:58N 49°11' W 122°55'0 0.0
2017-Jun-20 01:28N 49°11' W 122°55'0 0.0
2017-Jun-20 00:58N 49°11' W 122°55'0 0.0
2017-Jun-20 00:28N 49°11' W 122°55'0 0.0
2017-Jun-19 23:58N 49°11' W 122°55'0 0.0
2017-Jun-19 23:28N 49°11' W 122°55'0 0.0
2017-Jun-19 22:58N 49°11' W 122°55'0 0.0
2017-Jun-19 22:25N 49°11' W 122°55'0 0.0
2017-Jun-19 21:58N 49°11' W 122°55'0 0.0
2017-Jun-19 21:28N 49°11' W 122°55'0 0.0
2017-Jun-19 20:58N 49°11' W 122°55'0 0.0
2017-Jun-19 20:28N 49°11' W 122°55'0 0.0
2017-Jun-19 19:55N 49°11' W 122°55'0 0.0
2017-Jun-19 19:28N 49°11' W 122°55'0 0.0
2017-Jun-19 18:58N 49°11' W 122°55'0 0.0
2017-Jun-19 18:28N 49°11' W 122°55'0 0.0
2017-Jun-19 17:58N 49°11' W 122°55'0 0.0
2017-Jun-19 17:25N 49°11' W 122°55'0 0.0
2017-Jun-19 16:55N 49°11' W 122°55'0 0.0
2017-Jun-19 16:28N 49°11' W 122°55'0 0.0
2017-Jun-19 15:58N 49°11' W 122°55'0 0.0
2017-Jun-19 15:25N 49°11' W 122°55'0 0.0
2017-Jun-19 14:58N 49°11' W 122°55'0 0.0
2017-Jun-19 13:58N 49°11' W 122°55'0 0.0
2017-Jun-19 13:28N 49°11' W 122°55'0 0.0
2017-Jun-19 12:58N 49°11' W 122°55'0 0.0
2017-Jun-19 12:28N 49°11' W 122°55'0 0.0
2017-Jun-19 11:58N 49°11' W 122°55'0 0.0
2017-Jun-19 11:28N 49°11' W 122°55'0 0.0
2017-Jun-19 10:58N 49°11' W 122°55'0 0.0
2017-Jun-19 10:22N 49°11' W 122°55'0 0.0
2017-Jun-19 09:55N 49°11' W 122°55'0 0.0
2017-Jun-19 09:28N 49°11' W 122°55'0 0.0
2017-Jun-19 08:58N 49°11' W 122°55'0 0.0
2017-Jun-19 08:28N 49°11' W 122°55'0 0.0
2017-Jun-19 07:58N 49°11' W 122°55'0 0.0
2017-Jun-19 07:28N 49°11' W 122°55'0 0.0
2017-Jun-19 06:58N 49°11' W 122°55'0 0.0
2017-Jun-19 06:28N 49°11' W 122°55'0 0.0
2017-Jun-19 05:58N 49°11' W 122°55'0 0.0
2017-Jun-19 05:28N 49°11' W 122°55'0 0.0
2017-Jun-19 04:58N 49°11' W 122°55'0 0.0
2017-Jun-19 04:28N 49°11' W 122°55'0 0.0
2017-Jun-19 03:58N 49°11' W 122°55'0 0.0
2017-Jun-19 03:28N 49°11' W 122°55'0 0.0
2017-Jun-19 02:58N 49°11' W 122°55'0 0.0
2017-Jun-19 02:28N 49°11' W 122°55'0 0.0
2017-Jun-19 01:58N 49°11' W 122°55'0 0.0
2017-Jun-19 01:28N 49°11' W 122°55'0 0.0
2017-Jun-19 00:58N 49°11' W 122°55'0 0.0
2017-Jun-19 00:28N 49°11' W 122°55'0 0.0
2017-Jun-18 23:58N 49°11' W 122°55'0 0.0
2017-Jun-18 23:28N 49°11' W 122°55'0 0.0
2017-Jun-18 22:58N 49°11' W 122°55'0 0.0
2017-Jun-18 22:28N 49°11' W 122°55'0 0.0
2017-Jun-18 21:58N 49°11' W 122°55'0 0.0
2017-Jun-18 21:28N 49°11' W 122°55'0 0.0
2017-Jun-18 20:58N 49°11' W 122°55'0 0.0
2017-Jun-18 20:28N 49°11' W 122°55'0 0.0
2017-Jun-18 19:58N 49°11' W 122°55'0 0.0
2017-Jun-18 19:28N 49°11' W 122°55'0 0.0
2017-Jun-18 18:58N 49°11' W 122°55'0 0.0
2017-Jun-18 18:28N 49°11' W 122°55'0 0.0
2017-Jun-18 17:58N 49°11' W 122°55'0 0.0
2017-Jun-18 17:28N 49°11' W 122°55'0 0.0
2017-Jun-18 16:58N 49°11' W 122°55'0 0.0
2017-Jun-18 16:28N 49°11' W 122°55'0 0.0
2017-Jun-18 15:58N 49°11' W 122°55'0 0.0
2017-Jun-18 15:28N 49°11' W 122°55'0 0.0
2017-Jun-18 14:58N 49°11' W 122°55'0 0.0
2017-Jun-18 13:58N 49°11' W 122°55'0 0.0
2017-Jun-18 13:25N 49°11' W 122°55'0 0.0
2017-Jun-18 12:58N 49°11' W 122°55'0 0.0
2017-Jun-18 12:25N 49°11' W 122°55'0 0.0
2017-Jun-18 11:58N 49°11' W 122°55'0 0.0
2017-Jun-18 11:28N 49°11' W 122°55'0 0.0
2017-Jun-18 10:58N 49°11' W 122°55'0 0.0
2017-Jun-18 10:28N 49°11' W 122°55'0 0.0
2017-Jun-18 09:58N 49°11' W 122°55'0 0.0
2017-Jun-18 09:28N 49°11' W 122°55'0 0.0
2017-Jun-18 08:58N 49°11' W 122°55'0 0.0
2017-Jun-18 08:28N 49°11' W 122°55'0 0.0
2017-Jun-18 07:58N 49°11' W 122°55'0 0.0
2017-Jun-18 07:28N 49°11' W 122°55'0 0.0
2017-Jun-18 06:58N 49°11' W 122°55'0 0.0
2017-Jun-18 06:28N 49°11' W 122°55'0 0.0
2017-Jun-18 05:55N 49°11' W 122°55'0 0.0
2017-Jun-18 05:28N 49°11' W 122°55'0 0.0
2017-Jun-18 04:58N 49°11' W 122°55'0 0.0
2017-Jun-18 04:28N 49°11' W 122°55'0 0.0
2017-Jun-18 03:58N 49°11' W 122°55'0 0.0
2017-Jun-18 03:28N 49°11' W 122°55'0 0.0
2017-Jun-18 02:58N 49°11' W 122°55'0 0.0
2017-Jun-18 02:28N 49°11' W 122°55'0 0.0
2017-Jun-18 01:58N 49°11' W 122°55'0 0.0
2017-Jun-18 01:28N 49°11' W 122°55'0 0.0
2017-Jun-18 00:58N 49°11' W 122°55'0 0.0
2017-Jun-18 00:28N 49°11' W 122°55'0 0.0
2017-Jun-17 23:58N 49°11' W 122°55'0 0.0
2017-Jun-17 23:28N 49°11' W 122°55'0 0.0
2017-Jun-17 22:58N 49°11' W 122°55'0 0.0
2017-Jun-17 22:28N 49°11' W 122°55'0 0.0
2017-Jun-17 21:58N 49°11' W 122°55'0 0.0
2017-Jun-17 21:28N 49°11' W 122°55'0 0.0
2017-Jun-17 20:58N 49°11' W 122°55'0 0.0
2017-Jun-17 20:28N 49°11' W 122°55'0 0.0
2017-Jun-17 19:58N 49°11' W 122°55'0 0.0
2017-Jun-17 19:28N 49°11' W 122°55'0 0.0
2017-Jun-17 18:58N 49°11' W 122°55'0 0.0
2017-Jun-17 18:28N 49°11' W 122°55'0 0.0
2017-Jun-17 17:55N 49°11' W 122°55'0 0.0
2017-Jun-17 17:28N 49°11' W 122°55'0 0.0
2017-Jun-17 16:58N 49°11' W 122°55'0 0.0
2017-Jun-17 16:28N 49°11' W 122°55'0 0.0
2017-Jun-17 15:58N 49°11' W 122°55'0 0.0
2017-Jun-17 15:28N 49°11' W 122°55'0 0.0
2017-Jun-17 14:58N 49°11' W 122°55'0 0.0
2017-Jun-17 13:58N 49°11' W 122°55'0 0.0
2017-Jun-17 13:28N 49°11' W 122°55'0 0.0
2017-Jun-17 12:58N 49°11' W 122°55'0 0.0
2017-Jun-17 12:28N 49°11' W 122°55'0 0.0
2017-Jun-17 11:58N 49°11' W 122°55'0 0.0
2017-Jun-17 11:28N 49°11' W 122°55'0 0.0
2017-Jun-17 10:58N 49°11' W 122°55'0 0.0
2017-Jun-17 10:28N 49°11' W 122°55'0 0.0
2017-Jun-17 09:58N 49°11' W 122°55'0 0.0
2017-Jun-17 09:28N 49°11' W 122°55'0 0.0
2017-Jun-17 08:58N 49°11' W 122°55'0 0.0
2017-Jun-17 08:28N 49°11' W 122°55'0 0.0
2017-Jun-17 07:58N 49°11' W 122°55'0 0.0
2017-Jun-17 07:28N 49°11' W 122°55'0 0.0
2017-Jun-17 06:58N 49°11' W 122°55'0 0.0
2017-Jun-17 06:28N 49°11' W 122°55'0 0.0
2017-Jun-17 05:55N 49°11' W 122°55'0 0.0
2017-Jun-17 05:28N 49°11' W 122°55'0 0.0
2017-Jun-17 04:58N 49°11' W 122°55'0 0.0
2017-Jun-17 04:28N 49°11' W 122°55'0 0.0
2017-Jun-17 03:58N 49°11' W 122°55'0 0.0
2017-Jun-17 03:28N 49°11' W 122°55'0 0.0
2017-Jun-17 02:58N 49°11' W 122°55'0 0.0
2017-Jun-17 02:28N 49°11' W 122°55'0 0.0
2017-Jun-17 01:55N 49°11' W 122°55'0 0.0
2017-Jun-17 01:28N 49°11' W 122°55'0 0.0
2017-Jun-17 00:58N 49°11' W 122°55'0 0.0
2017-Jun-17 00:28N 49°11' W 122°55'0 0.0
2017-Jun-16 23:58N 49°11' W 122°55'0 0.0
2017-Jun-16 23:28N 49°11' W 122°55'0 0.0
2017-Jun-16 22:58N 49°11' W 122°55'0 0.0
2017-Jun-16 22:28N 49°11' W 122°55'0 0.0
2017-Jun-16 21:55N 49°11' W 122°55'0 0.0
2017-Jun-16 21:25N 49°11' W 122°55'0 0.0
2017-Jun-16 20:58N 49°11' W 122°55'0 0.0
2017-Jun-16 20:28N 49°11' W 122°55'0 0.0
2017-Jun-16 19:58N 49°11' W 122°55'0 0.0
2017-Jun-16 19:28N 49°11' W 122°55'0 0.0
2017-Jun-16 18:55N 49°11' W 122°55'0 0.0
2017-Jun-16 18:28N 49°11' W 122°55'0 0.0
2017-Jun-16 17:58N 49°11' W 122°55'0 0.0
2017-Jun-16 17:28N 49°11' W 122°55'0 0.0
2017-Jun-16 16:58N 49°11' W 122°55'0 0.0
2017-Jun-16 16:28N 49°11' W 122°55'0 0.0
2017-Jun-16 15:58N 49°11' W 122°55'0 0.0
2017-Jun-16 15:28N 49°11' W 122°55'0 0.0
2017-Jun-16 14:58N 49°11' W 122°55'0 0.0
2017-Jun-16 13:58N 49°11' W 122°55'0 0.0
2017-Jun-16 13:28N 49°11' W 122°55'0 0.0
2017-Jun-16 12:58N 49°11' W 122°55'0 0.0
2017-Jun-16 12:28N 49°11' W 122°55'0 0.0
2017-Jun-16 11:58N 49°11' W 122°55'0 0.0
2017-Jun-16 11:28N 49°11' W 122°55'0 0.0
2017-Jun-16 10:58N 49°11' W 122°55'0 0.0
2017-Jun-16 10:28N 49°11' W 122°55'0 0.0
2017-Jun-16 09:58N 49°11' W 122°55'0 0.0
2017-Jun-16 09:28N 49°11' W 122°55'0 0.0
2017-Jun-16 08:58N 49°11' W 122°55'0 0.0
2017-Jun-16 08:28N 49°11' W 122°55'0 0.0
2017-Jun-16 07:58N 49°11' W 122°55'0 0.0
2017-Jun-16 07:28N 49°11' W 122°55'0 0.0
2017-Jun-16 06:55N 49°11' W 122°55'0 0.0
2017-Jun-16 06:28N 49°11' W 122°55'0 0.0
2017-Jun-16 05:58N 49°11' W 122°55'0 0.0
2017-Jun-16 05:28N 49°11' W 122°55'0 0.0
2017-Jun-16 04:58N 49°11' W 122°55'0 0.0
2017-Jun-16 04:28N 49°11' W 122°55'0 0.0
2017-Jun-16 03:58N 49°11' W 122°55'0 0.0
2017-Jun-16 03:28N 49°11' W 122°55'0 0.0
2017-Jun-16 02:58N 49°11' W 122°55'0 0.0
2017-Jun-16 02:28N 49°11' W 122°55'0 0.0
2017-Jun-16 01:58N 49°11' W 122°55'0 0.0
2017-Jun-16 01:28N 49°11' W 122°55'0 0.0
2017-Jun-16 00:58N 49°11' W 122°55'0 0.0
2017-Jun-16 00:28N 49°11' W 122°55'0 0.0
2017-Jun-15 23:58N 49°11' W 122°55'0 0.0
2017-Jun-15 23:28N 49°11' W 122°55'0 0.0
2017-Jun-15 22:58N 49°11' W 122°55'0 0.0
2017-Jun-15 22:28N 49°11' W 122°55'0 0.0
2017-Jun-15 21:58N 49°11' W 122°55'0 0.0
2017-Jun-15 21:28N 49°11' W 122°55'0 0.0
2017-Jun-15 20:58N 49°11' W 122°55'0 0.0
2017-Jun-15 20:28N 49°11' W 122°55'0 0.0
2017-Jun-15 19:58N 49°11' W 122°55'0 0.0
2017-Jun-15 19:28N 49°11' W 122°55'0 0.0
2017-Jun-15 18:58N 49°11' W 122°55'0 0.0
2017-Jun-15 18:28N 49°11' W 122°55'0 0.0
2017-Jun-15 17:58N 49°11' W 122°55'0 0.0
2017-Jun-15 17:28N 49°11' W 122°55'0 0.0
2017-Jun-15 16:58N 49°11' W 122°55'0 0.0
2017-Jun-15 16:28N 49°11' W 122°55'0 0.0
2017-Jun-15 15:58N 49°11' W 122°55'0 0.0
2017-Jun-15 15:28N 49°11' W 122°55'0 0.0
2017-Jun-15 14:58N 49°11' W 122°55'0 0.0
2017-Jun-15 13:58N 49°11' W 122°55'0 0.0
2017-Jun-15 13:28N 49°11' W 122°55'0 0.0
2017-Jun-15 12:58N 49°11' W 122°55'0 0.0
2017-Jun-15 12:28N 49°11' W 122°55'0 0.0
2017-Jun-15 11:58N 49°11' W 122°55'0 0.0
2017-Jun-15 11:28N 49°11' W 122°55'0 0.0
2017-Jun-15 10:58N 49°11' W 122°55'0 0.0
2017-Jun-15 10:28N 49°11' W 122°55'0 0.0
2017-Jun-15 09:58N 49°11' W 122°55'0 0.0
2017-Jun-15 09:28N 49°11' W 122°55'0 0.0
2017-Jun-15 08:58N 49°11' W 122°55'0 0.0
2017-Jun-15 08:28N 49°11' W 122°55'0 0.0
2017-Jun-15 07:58N 49°11' W 122°55'0 0.0
2017-Jun-15 07:25N 49°11' W 122°55'0 0.0
2017-Jun-15 06:58N 49°11' W 122°55'0 0.0
2017-Jun-15 06:28N 49°11' W 122°55'0 0.0
2017-Jun-15 05:58N 49°11' W 122°55'0 0.0
2017-Jun-15 05:28N 49°11' W 122°55'0 0.0
2017-Jun-15 04:58N 49°11' W 122°55'0 0.0
2017-Jun-15 04:25N 49°11' W 122°55'0 0.0
2017-Jun-15 03:58N 49°11' W 122°55'0 0.0
2017-Jun-15 03:25N 49°11' W 122°55'0 0.0
2017-Jun-15 02:55N 49°11' W 122°55'0 0.0
2017-Jun-15 02:28N 49°11' W 122°55'0 0.0
2017-Jun-15 01:58N 49°11' W 122°55'0 0.0
2017-Jun-15 01:28N 49°11' W 122°55'0 0.0
2017-Jun-15 00:58N 49°11' W 122°55'0 0.0
2017-Jun-15 00:25N 49°11' W 122°55'0 0.0
2017-Jun-14 23:58N 49°11' W 122°55'0 0.0
2017-Jun-14 23:28N 49°11' W 122°55'0 0.0
2017-Jun-14 22:58N 49°11' W 122°55'0 0.0
2017-Jun-14 22:28N 49°11' W 122°55'0 0.0
2017-Jun-14 21:58N 49°11' W 122°55'0 0.0
2017-Jun-14 21:28N 49°11' W 122°55'0 0.0
2017-Jun-14 20:58N 49°11' W 122°55'0 0.0
2017-Jun-14 20:28N 49°11' W 122°55'0 0.0
2017-Jun-14 19:58N 49°11' W 122°55'0 0.0
2017-Jun-14 19:28N 49°11' W 122°55'0 0.0
2017-Jun-14 18:58N 49°11' W 122°55'0 0.0
2017-Jun-14 18:28N 49°11' W 122°55'0 0.0
2017-Jun-14 17:58N 49°11' W 122°55'0 0.0
2017-Jun-14 17:28N 49°11' W 122°55'0 0.0
2017-Jun-14 16:58N 49°11' W 122°55'0 0.0
2017-Jun-14 16:28N 49°11' W 122°55'0 0.0
2017-Jun-14 15:58N 49°11' W 122°55'0 0.0
2017-Jun-14 15:28N 49°11' W 122°55'0 0.0
2017-Jun-14 14:58N 49°11' W 122°55'0 0.0
2017-Jun-14 13:58N 49°11' W 122°55'0 0.0
2017-Jun-14 13:28N 49°11' W 122°55'0 0.0
2017-Jun-14 12:58N 49°11' W 122°55'0 0.0
2017-Jun-14 12:28N 49°11' W 122°55'0 0.0
2017-Jun-14 11:58N 49°11' W 122°55'0 0.0
2017-Jun-14 11:28N 49°11' W 122°55'0 0.0
2017-Jun-14 10:58N 49°11' W 122°55'0 0.0
2017-Jun-14 10:28N 49°11' W 122°55'0 0.0
2017-Jun-14 09:55N 49°11' W 122°55'0 0.0
2017-Jun-14 09:28N 49°11' W 122°55'0 0.0
2017-Jun-14 08:58N 49°11' W 122°55'0 0.0
2017-Jun-14 08:25N 49°11' W 122°55'0 0.0
2017-Jun-14 07:58N 49°11' W 122°55'0 0.0
2017-Jun-14 07:28N 49°11' W 122°55'0 0.0
2017-Jun-14 06:58N 49°11' W 122°55'0 0.0
2017-Jun-14 06:28N 49°11' W 122°55'0 0.0
2017-Jun-14 05:58N 49°11' W 122°55'0 0.0
2017-Jun-14 05:28N 49°11' W 122°55'0 0.0
2017-Jun-14 04:58N 49°11' W 122°55'0 0.0
2017-Jun-14 04:28N 49°11' W 122°55'0 0.0
2017-Jun-14 03:58N 49°11' W 122°55'0 0.0
2017-Jun-14 03:28N 49°11' W 122°55'0 0.0
2017-Jun-14 02:58N 49°11' W 122°55'  

Dump ship's entire track history